createdAt,value
2023-06-07T00:00:24.500Z,51.211929
2023-06-07T00:01:24.477Z,51.212025
2023-06-07T00:02:41.847Z,51.212055
2023-06-07T00:03:26.586Z,51.212116
2023-06-07T00:04:24.576Z,51.212112
2023-06-07T00:05:24.437Z,51.212181
2023-06-07T00:06:24.444Z,51.212185
2023-06-07T00:07:24.440Z,51.212116
2023-06-07T00:08:24.436Z,51.212139
2023-06-07T00:09:24.459Z,51.212009
2023-06-07T00:10:24.463Z,51.212078
2023-06-07T00:11:24.424Z,51.212078
2023-06-07T00:12:24.404Z,51.212082
2023-06-07T00:13:24.430Z,51.212101
2023-06-07T00:14:24.401Z,51.212086
2023-06-07T00:15:24.397Z,51.212090
2023-06-07T00:16:24.371Z,51.212070
2023-06-07T00:17:24.506Z,51.212036
2023-06-07T00:18:24.426Z,51.212139
2023-06-07T00:19:24.361Z,51.212234
2023-06-07T00:20:24.373Z,51.212257
2023-06-07T00:21:24.369Z,51.212234
2023-06-07T00:22:24.409Z,51.212170
2023-06-07T00:23:24.362Z,51.212196
2023-06-07T00:24:24.446Z,51.212097
2023-06-07T00:25:24.365Z,51.212177
2023-06-07T00:26:24.351Z,51.212318
2023-06-07T00:27:24.334Z,51.212448
2023-06-07T00:28:24.309Z,51.212208
2023-06-07T00:29:24.312Z,51.212200
2023-06-07T00:30:24.351Z,51.212166
2023-06-07T00:31:24.318Z,51.212090
2023-06-07T00:32:24.379Z,51.211895
2023-06-07T00:33:24.306Z,51.212009
2023-06-07T00:34:24.297Z,51.212132
2023-06-07T00:35:24.283Z,51.212219
2023-06-07T00:36:24.297Z,51.212051
2023-06-07T00:37:24.264Z,51.212055
2023-06-07T00:38:24.267Z,51.212215
2023-06-07T00:39:24.236Z,51.212109
2023-06-07T00:40:24.257Z,51.212276
2023-06-07T00:41:24.243Z,51.212231
2023-06-07T00:42:24.257Z,51.212223
2023-06-07T00:43:24.212Z,51.212036
2023-06-07T00:44:24.793Z,51.212162
2023-06-07T00:45:24.246Z,51.212193
2023-06-07T00:46:24.224Z,51.212143
2023-06-07T00:47:24.240Z,51.212292
2023-06-07T00:48:24.291Z,51.212067
2023-06-07T00:49:24.220Z,51.212158
2023-06-07T00:50:24.189Z,51.212170
2023-06-07T00:51:24.176Z,51.212261
2023-06-07T00:52:24.184Z,51.212234
2023-06-07T00:53:24.213Z,51.212200
2023-06-07T00:54:24.162Z,51.212154
2023-06-07T00:55:24.145Z,51.212162
2023-06-07T00:56:24.184Z,51.212135
2023-06-07T00:57:24.161Z,51.212082
2023-06-07T00:58:24.149Z,51.211956
2023-06-07T00:59:24.126Z,51.212040
2023-06-07T01:00:24.120Z,51.212128
2023-06-07T01:01:24.137Z,51.211990
2023-06-07T01:02:24.388Z,51.212093
2023-06-07T01:03:24.178Z,51.211956
2023-06-07T01:04:24.093Z,51.212032
2023-06-07T01:05:24.085Z,51.212151
2023-06-07T01:06:24.091Z,51.212196
2023-06-07T01:07:24.118Z,51.212120
2023-06-07T01:08:24.108Z,51.212013
2023-06-07T01:09:24.072Z,51.212135
2023-06-07T01:10:24.082Z,51.212227
2023-06-07T01:11:24.088Z,51.212132
2023-06-07T01:12:24.051Z,51.212078
2023-06-07T01:13:24.049Z,51.212112
2023-06-07T01:14:24.056Z,51.212315
2023-06-07T01:15:24.117Z,51.212200
2023-06-07T01:16:24.081Z,51.212231
2023-06-07T01:17:24.030Z,51.212395
2023-06-07T01:18:24.032Z,51.212330
2023-06-07T01:19:24.109Z,51.212151
2023-06-07T01:20:24.031Z,51.212189
2023-06-07T01:21:23.999Z,51.212074
2023-06-07T01:22:25.032Z,51.212147
2023-06-07T01:23:24.018Z,51.212292
2023-06-07T01:24:23.986Z,51.212158
2023-06-07T01:25:24.045Z,51.212074
2023-06-07T01:26:23.977Z,51.212067
2023-06-07T01:27:23.982Z,51.212135
2023-06-07T01:28:23.991Z,51.212009
2023-06-07T01:29:23.984Z,51.211910
2023-06-07T01:30:23.965Z,51.211826
2023-06-07T01:31:23.990Z,51.211842
2023-06-07T01:32:23.970Z,51.211880
2023-06-07T01:33:23.960Z,51.211823
2023-06-07T01:34:23.934Z,51.212154
2023-06-07T01:35:23.934Z,51.212135
2023-06-07T01:36:23.937Z,51.212215
2023-06-07T01:37:23.901Z,51.212116
2023-06-07T01:38:23.920Z,51.212078
2023-06-07T01:39:23.899Z,51.211979
2023-06-07T01:40:23.895Z,51.212177
2023-06-07T01:41:23.897Z,51.212048
2023-06-07T01:42:23.894Z,51.211990
2023-06-07T01:43:23.896Z,51.211998
2023-06-07T01:44:23.860Z,51.211975
2023-06-07T01:45:23.858Z,51.212051
2023-06-07T01:46:23.950Z,51.212021
2023-06-07T01:47:23.968Z,51.212021
2023-06-07T01:48:23.877Z,51.212048
2023-06-07T01:49:23.848Z,51.212090
2023-06-07T01:50:23.860Z,51.211987
2023-06-07T01:51:23.835Z,51.212040
2023-06-07T01:52:23.813Z,51.211990
2023-06-07T01:53:23.809Z,51.212090
2023-06-07T01:54:23.799Z,51.211872
2023-06-07T01:55:23.803Z,51.212067
2023-06-07T01:56:23.874Z,51.212078
2023-06-07T01:57:23.780Z,51.212063
2023-06-07T01:58:23.794Z,51.212109
2023-06-07T01:59:23.775Z,51.212093
2023-06-07T02:00:23.773Z,51.212063
2023-06-07T02:01:23.812Z,51.212059
2023-06-07T02:02:23.778Z,51.212078
2023-06-07T02:03:23.789Z,51.212025
2023-06-07T02:04:23.771Z,51.212120
2023-06-07T02:05:23.823Z,51.212109
2023-06-07T02:06:23.736Z,51.212219
2023-06-07T02:07:23.747Z,51.212204
2023-06-07T02:08:23.718Z,51.212193
2023-06-07T02:09:23.747Z,51.212162
2023-06-07T02:10:23.706Z,51.212154
2023-06-07T02:11:23.737Z,51.212135
2023-06-07T02:12:23.732Z,51.212067
2023-06-07T02:13:23.691Z,51.212090
2023-06-07T02:14:23.717Z,51.212132
2023-06-07T02:15:23.731Z,51.212242
2023-06-07T02:16:23.679Z,51.212257
2023-06-07T02:17:23.835Z,51.212223
2023-06-07T02:18:23.905Z,51.212177
2023-06-07T02:19:23.678Z,51.212151
2023-06-07T02:20:23.651Z,51.212162
2023-06-07T02:21:23.800Z,51.212177
2023-06-07T02:22:23.649Z,51.212151
2023-06-07T02:23:23.721Z,51.212162
2023-06-07T02:24:23.632Z,51.212189
2023-06-07T02:25:23.662Z,51.212170
2023-06-07T02:26:23.608Z,51.212257
2023-06-07T02:27:23.630Z,51.212193
2023-06-07T02:28:23.631Z,51.212219
2023-06-07T02:29:23.618Z,51.212139
2023-06-07T02:30:23.585Z,51.212181
2023-06-07T02:31:23.625Z,51.212181
2023-06-07T02:32:23.604Z,51.212162
2023-06-07T02:33:23.585Z,51.212158
2023-06-07T02:34:23.786Z,51.212112
2023-06-07T02:35:23.590Z,51.212074
2023-06-07T02:36:23.579Z,51.212055
2023-06-07T02:37:23.560Z,51.212021
2023-06-07T02:38:23.548Z,51.212044
2023-06-07T02:39:23.535Z,51.212109
2023-06-07T02:40:23.559Z,51.212162
2023-06-07T02:41:23.588Z,51.212105
2023-06-07T02:42:23.550Z,51.212051
2023-06-07T02:43:23.517Z,51.212139
2023-06-07T02:44:23.527Z,51.212135
2023-06-07T02:45:23.518Z,51.212067
2023-06-07T02:46:23.601Z,51.212090
2023-06-07T02:47:23.498Z,51.212093
2023-06-07T02:48:23.509Z,51.212063
2023-06-07T02:49:23.491Z,51.212158
2023-06-07T02:50:23.466Z,51.212181
2023-06-07T02:51:23.474Z,51.212246
2023-06-07T02:52:23.461Z,51.212120
2023-06-07T02:53:23.465Z,51.212147
2023-06-07T02:54:23.508Z,51.212006
2023-06-07T02:55:23.442Z,51.212139
2023-06-07T02:56:23.457Z,51.212273
2023-06-07T02:57:23.471Z,51.212158
2023-06-07T02:58:23.410Z,51.212143
2023-06-07T02:59:23.404Z,51.212147
2023-06-07T03:00:23.403Z,51.212242
2023-06-07T03:01:23.468Z,51.212402
2023-06-07T03:02:23.488Z,51.212402
2023-06-07T03:03:23.631Z,51.212322
2023-06-07T03:04:23.387Z,51.212334
2023-06-07T03:05:23.366Z,51.212402
2023-06-07T03:06:23.378Z,51.212269
2023-06-07T03:07:23.403Z,51.212292
2023-06-07T03:08:23.386Z,51.212303
2023-06-07T03:09:23.375Z,51.212311
2023-06-07T03:10:23.348Z,51.212437
2023-06-07T03:11:23.436Z,51.212368
2023-06-07T03:12:24.232Z,51.212284
2023-06-07T03:13:23.340Z,51.212261
2023-06-07T03:14:23.356Z,51.212303
2023-06-07T03:15:23.380Z,51.212391
2023-06-07T03:16:23.346Z,51.212387
2023-06-07T03:17:23.343Z,51.212322
2023-06-07T03:18:23.313Z,51.212234
2023-06-07T03:19:23.325Z,51.212238
2023-06-07T03:20:23.324Z,51.212353
2023-06-07T03:21:23.306Z,51.212273
2023-06-07T03:22:23.283Z,51.212284
2023-06-07T03:23:23.321Z,51.212120
2023-06-07T03:24:23.303Z,51.212166
2023-06-07T03:25:23.312Z,51.212265
2023-06-07T03:26:23.258Z,51.212353
2023-06-07T03:27:23.257Z,51.212364
2023-06-07T03:28:23.262Z,51.212139
2023-06-07T03:29:24.269Z,51.212238
2023-06-07T03:30:23.263Z,51.212357
2023-06-07T03:31:23.294Z,51.212608
2023-06-07T03:32:23.262Z,51.212139
2023-06-07T03:33:23.212Z,51.212151
2023-06-07T03:34:23.213Z,51.212212
2023-06-07T03:35:23.265Z,51.212166
2023-06-07T03:36:23.201Z,51.212086
2023-06-07T03:37:23.436Z,51.212223
2023-06-07T03:38:23.234Z,51.212040
2023-06-07T03:39:23.234Z,51.212124
2023-06-07T03:40:23.184Z,51.212162
2023-06-07T03:41:23.216Z,51.212368
2023-06-07T03:42:23.152Z,51.212070
2023-06-07T03:43:23.209Z,51.211742
2023-06-07T03:44:23.172Z,51.211826
2023-06-07T03:45:23.134Z,51.211903
2023-06-07T03:46:23.153Z,51.212124
2023-06-07T03:47:23.219Z,51.212193
2023-06-07T03:48:23.266Z,51.212170
2023-06-07T03:49:23.155Z,51.212078
2023-06-07T03:50:23.126Z,51.212166
2023-06-07T03:51:23.124Z,51.212242
2023-06-07T03:52:23.117Z,51.212170
2023-06-07T03:53:23.134Z,51.212193
2023-06-07T03:54:23.110Z,51.212063
2023-06-07T03:55:23.092Z,51.212074
2023-06-07T03:56:23.077Z,51.212048
2023-06-07T03:57:23.066Z,51.212112
2023-06-07T03:58:23.096Z,51.212280
2023-06-07T03:59:23.095Z,51.212288
2023-06-07T04:00:23.071Z,51.212322
2023-06-07T04:01:23.040Z,51.212334
2023-06-07T04:02:23.094Z,51.212257
2023-06-07T04:03:23.178Z,51.212269
2023-06-07T04:04:23.093Z,51.212276
2023-06-07T04:05:23.025Z,51.212318
2023-06-07T04:06:23.078Z,51.212337
2023-06-07T04:07:23.004Z,51.212254
2023-06-07T04:08:23.004Z,51.212284
2023-06-07T04:09:22.984Z,51.212246
2023-06-07T04:10:23.026Z,51.212189
2023-06-07T04:11:23.003Z,51.212139
2023-06-07T04:12:22.970Z,51.212177
2023-06-07T04:13:22.995Z,51.212200
2023-06-07T04:14:22.993Z,51.212288
2023-06-07T04:15:22.986Z,51.212116
2023-06-07T04:16:22.995Z,51.212223
2023-06-07T04:17:22.968Z,51.212395
2023-06-07T04:18:22.944Z,51.212360
2023-06-07T04:19:22.936Z,51.212257
2023-06-07T04:20:22.948Z,51.211971
2023-06-07T04:21:22.937Z,51.212166
2023-06-07T04:22:22.905Z,51.212231
2023-06-07T04:23:23.797Z,51.212170
2023-06-07T04:24:23.008Z,51.212341
2023-06-07T04:25:22.920Z,51.212299
2023-06-07T04:26:22.947Z,51.212082
2023-06-07T04:27:22.897Z,51.212158
2023-06-07T04:28:22.885Z,51.212029
2023-06-07T04:29:22.871Z,51.212223
2023-06-07T04:30:22.844Z,51.212097
2023-06-07T04:31:22.894Z,51.212070
2023-06-07T04:32:22.923Z,51.212143
2023-06-07T04:33:22.849Z,51.212185
2023-06-07T04:34:22.850Z,51.212204
2023-06-07T04:35:22.843Z,51.212173
2023-06-07T04:36:22.823Z,51.212154
2023-06-07T04:37:22.841Z,51.212132
2023-06-07T04:38:23.681Z,51.212173
2023-06-07T04:39:23.836Z,51.212147
2023-06-07T04:40:22.796Z,51.212105
2023-06-07T04:41:22.805Z,51.212093
2023-06-07T04:42:22.795Z,51.212124
2023-06-07T04:43:22.781Z,51.212147
2023-06-07T04:44:22.792Z,51.212151
2023-06-07T04:45:22.767Z,51.212105
2023-06-07T04:46:22.799Z,51.212112
2023-06-07T04:47:22.784Z,51.212143
2023-06-07T04:48:22.777Z,51.212170
2023-06-07T04:49:25.404Z,51.212063
2023-06-07T04:50:23.694Z,51.212055
2023-06-07T04:51:22.727Z,51.212013
2023-06-07T04:52:22.788Z,51.212032
2023-06-07T04:53:22.706Z,51.212021
2023-06-07T04:54:22.781Z,51.212059
2023-06-07T04:55:22.775Z,51.211998
2023-06-07T04:56:22.724Z,51.211975
2023-06-07T04:57:22.740Z,51.212086
2023-06-07T04:58:22.818Z,51.211964
2023-06-07T04:59:22.694Z,51.212090
2023-06-07T05:00:22.690Z,51.212078
2023-06-07T05:01:22.738Z,51.212112
2023-06-07T05:02:22.732Z,51.212101
2023-06-07T05:03:22.940Z,51.211990
2023-06-07T05:04:22.639Z,51.212151
2023-06-07T05:05:22.726Z,51.212189
2023-06-07T05:06:22.665Z,51.212219
2023-06-07T05:07:22.645Z,51.212173
2023-06-07T05:08:22.637Z,51.212173
2023-06-07T05:09:22.702Z,51.212219
2023-06-07T05:10:22.738Z,51.212208
2023-06-07T05:11:22.625Z,51.212143
2023-06-07T05:12:22.628Z,51.212151
2023-06-07T05:13:22.584Z,51.212105
2023-06-07T05:14:22.618Z,51.212036
2023-06-07T05:15:22.584Z,51.212128
2023-06-07T05:16:22.703Z,51.212082
2023-06-07T05:17:22.549Z,51.212090
2023-06-07T05:18:22.564Z,51.212086
2023-06-07T05:19:22.554Z,51.212097
2023-06-07T05:20:22.561Z,51.212349
2023-06-07T05:21:22.538Z,51.212154
2023-06-07T05:22:22.541Z,51.212193
2023-06-07T05:23:22.523Z,51.212002
2023-06-07T05:24:22.607Z,51.212002
2023-06-07T05:25:22.529Z,51.212017
2023-06-07T05:26:22.511Z,51.212059
2023-06-07T05:27:22.635Z,51.212124
2023-06-07T05:28:22.507Z,51.212143
2023-06-07T05:29:22.470Z,51.212086
2023-06-07T05:30:22.477Z,51.212162
2023-06-07T05:31:22.591Z,51.212196
2023-06-07T05:32:22.505Z,51.212238
2023-06-07T05:33:22.463Z,51.212246
2023-06-07T05:34:22.576Z,51.212193
2023-06-07T05:35:22.449Z,51.212135
2023-06-07T05:36:22.454Z,51.212078
2023-06-07T05:37:22.457Z,51.212109
2023-06-07T05:38:22.512Z,51.212215
2023-06-07T05:39:22.471Z,51.212215
2023-06-07T05:40:22.398Z,51.212219
2023-06-07T05:41:22.421Z,51.212158
2023-06-07T05:42:22.422Z,51.212181
2023-06-07T05:43:22.419Z,51.212231
2023-06-07T05:44:22.469Z,51.212170
2023-06-07T05:45:22.376Z,51.212154
2023-06-07T05:46:22.398Z,51.212135
2023-06-07T05:47:22.367Z,51.212109
2023-06-07T05:48:22.371Z,51.212048
2023-06-07T05:49:22.378Z,51.212166
2023-06-07T05:50:22.402Z,51.212101
2023-06-07T05:51:22.358Z,51.212093
2023-06-07T05:52:22.334Z,51.212090
2023-06-07T05:53:22.385Z,51.212250
2023-06-07T05:54:22.347Z,51.212166
2023-06-07T05:55:22.303Z,51.212177
2023-06-07T05:56:22.309Z,51.212139
2023-06-07T05:57:22.282Z,51.212101
2023-06-07T05:58:22.292Z,51.212044
2023-06-07T05:59:22.305Z,51.212044
2023-06-07T06:00:22.298Z,51.212120
2023-06-07T06:01:22.281Z,51.212112
2023-06-07T06:02:22.319Z,51.212082
2023-06-07T06:03:22.282Z,51.212135
2023-06-07T06:04:22.320Z,51.212204
2023-06-07T06:05:22.400Z,51.212246
2023-06-07T06:06:22.269Z,51.212181
2023-06-07T06:07:22.234Z,51.212254
2023-06-07T06:08:22.253Z,51.212254
2023-06-07T06:09:22.231Z,51.212200
2023-06-07T06:10:22.239Z,51.212151
2023-06-07T06:11:22.236Z,51.212139
2023-06-07T06:12:22.213Z,51.212135
2023-06-07T06:13:22.197Z,51.212200
2023-06-07T06:14:22.791Z,51.212299
2023-06-07T06:15:22.205Z,51.212303
2023-06-07T06:16:22.231Z,51.212254
2023-06-07T06:17:22.859Z,51.212215
2023-06-07T06:18:22.174Z,51.212120
2023-06-07T06:19:22.153Z,51.212246
2023-06-07T06:20:22.169Z,51.212418
2023-06-07T06:21:22.178Z,51.212349
2023-06-07T06:22:22.162Z,51.212234
2023-06-07T06:23:22.246Z,51.212261
2023-06-07T06:24:22.153Z,51.212292
2023-06-07T06:25:22.129Z,51.212357
2023-06-07T06:26:22.129Z,51.212151
2023-06-07T06:27:22.226Z,51.211906
2023-06-07T06:28:22.137Z,51.212135
2023-06-07T06:29:22.090Z,51.212219
2023-06-07T06:30:22.224Z,51.212177
2023-06-07T06:31:22.242Z,51.212269
2023-06-07T06:32:22.109Z,51.212208
2023-06-07T06:33:22.103Z,51.212257
2023-06-07T06:34:22.041Z,51.212330
2023-06-07T06:35:22.055Z,51.212128
2023-06-07T06:36:22.111Z,51.212208
2023-06-07T06:37:22.036Z,51.212189
2023-06-07T06:38:22.025Z,51.212212
2023-06-07T06:39:22.029Z,51.212120
2023-06-07T06:40:22.023Z,51.212162
2023-06-07T06:41:22.023Z,51.212109
2023-06-07T06:42:22.001Z,51.212090
2023-06-07T06:43:21.991Z,51.212002
2023-06-07T06:44:21.996Z,51.212013
2023-06-07T06:45:21.981Z,51.212063
2023-06-07T06:46:22.784Z,51.212044
2023-06-07T06:47:22.793Z,51.212109
2023-06-07T06:48:21.954Z,51.212017
2023-06-07T06:49:21.973Z,51.212093
2023-06-07T06:50:32.993Z,51.212151
2023-06-07T06:51:24.008Z,51.212170
2023-06-07T06:52:21.921Z,51.212124
2023-06-07T06:53:21.925Z,51.212128
2023-06-07T06:54:21.902Z,51.212147
2023-06-07T06:55:21.909Z,51.211979
2023-06-07T06:56:21.916Z,51.212017
2023-06-07T06:57:21.928Z,51.211994
2023-06-07T06:58:21.903Z,51.212093
2023-06-07T06:59:21.964Z,51.212082
2023-06-07T07:00:21.913Z,51.212055
2023-06-07T07:01:21.895Z,51.212124
2023-06-07T07:02:22.043Z,51.212082
2023-06-07T07:03:21.936Z,51.212048
2023-06-07T07:04:22.000Z,51.212185
2023-06-07T07:05:21.857Z,51.212143
2023-06-07T07:06:21.884Z,51.212242
2023-06-07T07:07:21.884Z,51.212284
2023-06-07T07:08:21.935Z,51.212112
2023-06-07T07:09:21.872Z,51.212090
2023-06-07T07:10:21.927Z,51.212097
2023-06-07T07:11:21.864Z,51.212151
2023-06-07T07:12:21.840Z,51.211872
2023-06-07T07:13:21.811Z,51.211761
2023-06-07T07:14:21.912Z,51.211826
2023-06-07T07:15:21.773Z,51.211933
2023-06-07T07:16:21.809Z,51.212021
2023-06-07T07:17:22.737Z,51.212082
2023-06-07T07:18:22.065Z,51.212147
2023-06-07T07:19:21.766Z,51.211975
2023-06-07T07:20:21.759Z,51.211906
2023-06-07T07:21:21.764Z,51.212021
2023-06-07T07:22:21.800Z,51.212051
2023-06-07T07:23:21.794Z,51.212040
2023-06-07T07:24:21.795Z,51.212166
2023-06-07T07:25:21.731Z,51.212212
2023-06-07T07:26:21.721Z,51.212074
2023-06-07T07:27:21.769Z,51.212154
2023-06-07T07:28:21.725Z,51.212177
2023-06-07T07:29:21.758Z,51.212143
2023-06-07T07:30:21.752Z,51.212151
2023-06-07T07:31:21.690Z,51.212299
2023-06-07T07:32:21.727Z,51.212288
2023-06-07T07:33:21.675Z,51.212067
2023-06-07T07:34:21.688Z,51.212059
2023-06-07T07:35:21.771Z,51.212200
2023-06-07T07:36:21.655Z,51.212090
2023-06-07T07:37:21.661Z,51.212036
2023-06-07T07:38:21.669Z,51.212078
2023-06-07T07:39:21.649Z,51.212132
2023-06-07T07:40:21.663Z,51.211918
2023-06-07T07:41:21.628Z,51.212090
2023-06-07T07:42:21.617Z,51.212173
2023-06-07T07:43:21.662Z,51.212349
2023-06-07T07:44:21.609Z,51.212128
2023-06-07T07:45:21.611Z,51.212227
2023-06-07T07:46:21.617Z,51.212105
2023-06-07T07:47:21.584Z,51.212151
2023-06-07T07:48:21.671Z,51.212238
2023-06-07T07:49:21.562Z,51.212280
2023-06-07T07:50:21.616Z,51.211899
2023-06-07T07:51:21.566Z,51.212032
2023-06-07T07:52:22.769Z,51.212238
2023-06-07T07:53:22.614Z,51.212189
2023-06-07T07:54:21.551Z,51.212307
2023-06-07T07:55:21.562Z,51.212105
2023-06-07T07:56:21.555Z,51.212097
2023-06-07T07:57:21.523Z,51.212105
2023-06-07T07:58:21.562Z,51.212372
2023-06-07T07:59:21.533Z,51.212238
2023-06-07T08:00:21.522Z,51.212284
2023-06-07T08:01:21.550Z,51.212124
2023-06-07T08:02:21.572Z,51.212013
2023-06-07T08:03:21.665Z,51.212101
2023-06-07T08:04:21.540Z,51.212147
2023-06-07T08:05:21.484Z,51.212032
2023-06-07T08:06:21.546Z,51.212017
2023-06-07T08:07:21.506Z,51.212036
2023-06-07T08:08:21.471Z,51.212093
2023-06-07T08:09:21.477Z,51.212177
2023-06-07T08:10:21.530Z,51.212288
2023-06-07T08:11:21.428Z,51.212212
2023-06-07T08:12:22.497Z,51.212044
2023-06-07T08:13:21.474Z,51.212143
2023-06-07T08:14:21.461Z,51.212193
2023-06-07T08:15:21.413Z,51.212200
2023-06-07T08:16:21.518Z,51.212154
2023-06-07T08:17:21.420Z,51.212185
2023-06-07T08:18:21.392Z,51.212162
2023-06-07T08:19:21.438Z,51.212189
2023-06-07T08:20:21.456Z,51.212208
2023-06-07T08:21:21.449Z,51.212204
2023-06-07T08:22:21.412Z,51.212109
2023-06-07T08:23:21.400Z,51.212078
2023-06-07T08:24:21.455Z,51.212086
2023-06-07T08:25:21.433Z,51.212139
2023-06-07T08:26:21.365Z,51.212135
2023-06-07T08:27:21.347Z,51.212128
2023-06-07T08:28:21.341Z,51.212154
2023-06-07T08:29:23.103Z,51.212132
2023-06-07T08:30:22.375Z,51.211960
2023-06-07T08:31:21.362Z,51.212101
2023-06-07T08:32:21.316Z,51.212124
2023-06-07T08:33:21.316Z,51.212025
2023-06-07T08:34:21.326Z,51.212036
2023-06-07T08:35:21.289Z,51.212048
2023-06-07T08:36:22.327Z,51.212006
2023-06-07T08:37:21.287Z,51.212105
2023-06-07T08:38:21.381Z,51.212151
2023-06-07T08:39:21.809Z,51.212040
2023-06-07T08:40:21.307Z,51.212170
2023-06-07T08:41:21.272Z,51.212189
2023-06-07T08:42:21.244Z,51.212204
2023-06-07T08:43:21.245Z,51.212124
2023-06-07T08:44:21.322Z,51.212093
2023-06-07T08:45:21.253Z,51.212025
2023-06-07T08:46:21.304Z,51.212055
2023-06-07T08:47:21.283Z,51.212006
2023-06-07T08:48:21.214Z,51.212074
2023-06-07T08:49:21.242Z,51.212029
2023-06-07T08:50:21.288Z,51.212315
2023-06-07T08:51:21.241Z,51.212250
2023-06-07T08:52:21.177Z,51.211990
2023-06-07T08:53:21.209Z,51.211990
2023-06-07T08:54:21.269Z,51.212009
2023-06-07T08:55:21.240Z,51.212021
2023-06-07T08:56:21.208Z,51.212025
2023-06-07T08:57:21.175Z,51.212067
2023-06-07T08:58:21.164Z,51.212032
2023-06-07T08:59:21.157Z,51.212097
2023-06-07T09:00:21.185Z,51.212044
2023-06-07T09:01:21.186Z,51.212021
2023-06-07T09:02:21.189Z,51.212013
2023-06-07T09:03:21.287Z,51.212074
2023-06-07T09:04:21.190Z,51.212139
2023-06-07T09:05:21.120Z,51.212093
2023-06-07T09:06:21.133Z,51.212093
2023-06-07T09:07:21.098Z,51.212036
2023-06-07T09:08:21.100Z,51.211895
2023-06-07T09:09:21.116Z,51.211952
2023-06-07T09:10:21.115Z,51.212009
2023-06-07T09:11:21.125Z,51.212051
2023-06-07T09:12:21.090Z,51.211952
2023-06-07T09:13:21.094Z,51.211933
2023-06-07T09:14:21.047Z,51.211952
2023-06-07T09:15:21.089Z,51.212021
2023-06-07T09:16:21.169Z,51.212048
2023-06-07T09:17:21.164Z,51.212040
2023-06-07T09:18:21.196Z,51.212021
2023-06-07T09:19:21.027Z,51.212063
2023-06-07T09:20:21.033Z,51.212173
2023-06-07T09:21:21.022Z,51.212063
2023-06-07T09:22:21.057Z,51.212017
2023-06-07T09:23:21.021Z,51.212002
2023-06-07T09:24:21.065Z,51.211987
2023-06-07T09:25:22.018Z,51.211956
2023-06-07T09:26:20.995Z,51.211926
2023-06-07T09:27:21.070Z,51.212070
2023-06-07T09:28:20.991Z,51.212090
2023-06-07T09:29:21.932Z,51.212044
2023-06-07T09:30:22.012Z,51.212067
2023-06-07T09:31:21.050Z,51.212070
2023-06-07T09:32:21.033Z,51.212048
2023-06-07T09:33:21.036Z,51.212143
2023-06-07T09:34:21.028Z,51.212124
2023-06-07T09:35:20.991Z,51.212135
2023-06-07T09:36:20.992Z,51.212265
2023-06-07T09:37:20.957Z,51.212215
2023-06-07T09:38:20.947Z,51.212090
2023-06-07T09:39:20.925Z,51.212059
2023-06-07T09:40:20.939Z,51.212040
2023-06-07T09:41:20.988Z,51.211922
2023-06-07T09:42:21.048Z,51.211975
2023-06-07T09:43:20.906Z,51.212154
2023-06-07T09:44:20.895Z,51.212109
2023-06-07T09:45:20.907Z,51.211937
2023-06-07T09:46:20.986Z,51.211983
2023-06-07T09:47:21.071Z,51.212036
2023-06-07T09:48:20.990Z,51.212017
2023-06-07T09:49:20.993Z,51.212044
2023-06-07T09:50:20.966Z,51.212013
2023-06-07T09:51:20.896Z,51.212040
2023-06-07T09:52:20.854Z,51.212017
2023-06-07T09:53:20.885Z,51.212147
2023-06-07T09:54:20.842Z,51.212032
2023-06-07T09:55:21.247Z,51.212078
2023-06-07T09:56:21.866Z,51.211975
2023-06-07T09:57:20.812Z,51.211975
2023-06-07T09:58:20.960Z,51.212017
2023-06-07T09:59:20.974Z,51.212013
2023-06-07T10:00:20.846Z,51.212116
2023-06-07T10:01:20.882Z,51.211979
2023-06-07T10:02:20.831Z,51.212078
2023-06-07T10:03:20.900Z,51.212162
2023-06-07T10:04:20.815Z,51.212162
2023-06-07T10:05:20.792Z,51.212177
2023-06-07T10:06:20.762Z,51.212162
2023-06-07T10:07:20.925Z,51.212185
2023-06-07T10:08:20.832Z,51.212143
2023-06-07T10:09:20.806Z,51.212200
2023-06-07T10:10:20.851Z,51.212170
2023-06-07T10:11:20.777Z,51.212116
2023-06-07T10:12:20.749Z,51.212200
2023-06-07T10:13:20.839Z,51.212200
2023-06-07T10:14:20.925Z,51.212208
2023-06-07T10:15:20.736Z,51.212193
2023-06-07T10:16:20.874Z,51.212166
2023-06-07T10:17:20.928Z,51.212147
2023-06-07T10:18:20.774Z,51.212177
2023-06-07T10:19:20.739Z,51.212246
2023-06-07T10:20:20.786Z,51.212219
2023-06-07T10:21:20.734Z,51.212124
2023-06-07T10:22:20.691Z,51.212112
2023-06-07T10:23:22.783Z,51.212204
2023-06-07T10:24:20.808Z,51.212204
2023-06-07T10:25:20.717Z,51.212227
2023-06-07T10:26:20.733Z,51.212196
2023-06-07T10:27:20.681Z,51.212223
2023-06-07T10:28:20.696Z,51.212238
2023-06-07T10:29:22.296Z,51.212128
2023-06-07T10:30:21.662Z,51.212189
2023-06-07T10:31:20.660Z,51.212105
2023-06-07T10:32:20.651Z,51.212158
2023-06-07T10:33:20.687Z,51.212101
2023-06-07T10:34:20.640Z,51.212158
2023-06-07T10:35:20.613Z,51.212189
2023-06-07T10:36:20.683Z,51.212162
2023-06-07T10:37:20.663Z,51.212124
2023-06-07T10:38:20.604Z,51.212128
2023-06-07T10:39:21.610Z,51.212166
2023-06-07T10:40:20.596Z,51.212124
2023-06-07T10:41:20.588Z,51.212093
2023-06-07T10:42:20.583Z,51.212082
2023-06-07T10:43:20.594Z,51.212132
2023-06-07T10:44:20.545Z,51.212250
2023-06-07T10:45:20.589Z,51.212265
2023-06-07T10:46:20.748Z,51.212322
2023-06-07T10:47:21.662Z,51.212254
2023-06-07T10:48:20.639Z,51.212269
2023-06-07T10:49:20.534Z,51.212261
2023-06-07T10:50:20.582Z,51.212242
2023-06-07T10:51:20.490Z,51.212193
2023-06-07T10:52:20.687Z,51.212173
2023-06-07T10:53:20.535Z,51.212025
2023-06-07T10:54:20.506Z,51.212120
2023-06-07T10:55:20.499Z,51.212090
2023-06-07T10:56:20.526Z,51.212101
2023-06-07T10:57:20.474Z,51.212181
2023-06-07T10:58:20.523Z,51.212124
2023-06-07T10:59:20.508Z,51.212204
2023-06-07T11:00:20.452Z,51.212074
2023-06-07T11:01:20.463Z,51.212265
2023-06-07T11:02:20.595Z,51.212173
2023-06-07T11:03:20.490Z,51.212227
2023-06-07T11:04:20.559Z,51.212219
2023-06-07T11:05:20.465Z,51.212132
2023-06-07T11:06:20.428Z,51.212193
2023-06-07T11:07:20.544Z,51.212185
2023-06-07T11:08:20.407Z,51.212288
2023-06-07T11:09:20.435Z,51.212246
2023-06-07T11:10:20.430Z,51.212238
2023-06-07T11:11:20.433Z,51.212177
2023-06-07T11:12:20.394Z,51.212257
2023-06-07T11:13:20.404Z,51.212193
2023-06-07T11:14:20.362Z,51.212177
2023-06-07T11:15:20.370Z,51.212200
2023-06-07T11:16:20.408Z,51.212208
2023-06-07T11:17:20.414Z,51.212173
2023-06-07T11:18:20.395Z,51.212177
2023-06-07T11:19:20.455Z,51.212208
2023-06-07T11:20:20.380Z,51.212238
2023-06-07T11:21:20.419Z,51.212265
2023-06-07T11:22:20.364Z,51.212208
2023-06-07T11:23:20.319Z,51.212185
2023-06-07T11:24:20.586Z,51.212200